Henning, Minnesota
Current Conditions -  °F | °C
As of 4:52 PM on Wednesday 22 Oct 2014 (Local Time) from KADC Reporting Station
Scattered Clouds Scattered Clouds  
Wind Chill: 61°   Ceiling: Unl
Heat Index: 61°   Visibility: 10mi
Dew Point: 45°   Wind: 9mph
Humidity: 55%   Direction: 150°SSE
Pressure: 29.92"   Gusts: NA
Location:  46.32°N, 95.45°W
Report Text: KADC 222152Z AUTO 15008KT 10SM SCT080 16/07 A2992 RMK AO2
Loading
Personal Weather Stations






























Interactive Weather Map New forecast layout! Learn more

10-Day Weather Forecast

Advertisements
Track Severe Weather on mobile